Time;durP1;ratioP1;P1;durP2;ratioP2;P2;SDS_P1;SDS_P2;PMS_P1;PMS_P2;Temp;Humidity;BMP_temperature;BMP_pressure;BME280_temperature;BME280_humidity;BME280_pressure;Samples;Min_cycle;Max_cycle;Signal;HPM_P1;HPM_P2
2023/08/10 00:01:19;;;;;;;6.87;4.33;;;12.90;99.90;;;;;;5047405;28;20504;-55
2023/08/10 00:03:44;;;;;;;8.40;4.23;;;12.90;99.90;;;;;;5054021;28;20776;-55
2023/08/10 00:06:11;;;;;;;6.87;4.53;;;12.90;99.90;;;;;;5049743;28;20429;-55
2023/08/10 00:08:37;;;;;;;5.97;4.20;;;12.80;99.90;;;;;;5056369;28;20250;-55
2023/08/10 00:11:04;;;;;;;4.90;3.93;;;12.80;99.90;;;;;;5060123;28;20519;-55
2023/08/10 00:13:29;;;;;;;5.13;3.60;;;12.80;99.90;;;;;;5058473;28;20474;-55
2023/08/10 00:15:55;;;;;;;3.50;3.20;;;12.80;99.90;;;;;;5055424;28;20890;-54
2023/08/10 00:18:21;;;;;;;5.90;3.57;;;12.80;99.90;;;;;;5056872;28;20214;-55
2023/08/10 00:20:47;;;;;;;7.43;2.77;;;12.70;99.90;;;;;;5057481;28;20191;-56
2023/08/10 00:23:12;;;;;;;6.90;3.83;;;12.70;99.90;;;;;;5053323;28;20805;-54
2023/08/10 00:25:38;;;;;;;9.60;3.07;;;12.70;99.90;;;;;;5051835;28;20203;-56
2023/08/10 00:28:04;;;;;;;4.70;3.60;;;12.60;99.90;;;;;;5045974;28;20191;-55
2023/08/10 00:30:30;;;;;;;4.03;3.27;;;12.60;99.90;;;;;;5053099;28;20593;-54
2023/08/10 00:32:56;;;;;;;4.43;3.43;;;12.60;99.90;;;;;;5055151;28;20444;-55
2023/08/10 00:35:25;;;;;;;11.80;3.73;;;12.50;99.90;;;;;;5048860;28;20341;-55
2023/08/10 00:37:51;;;;;;;12.40;3.23;;;12.50;99.90;;;;;;5053147;28;20437;-55
2023/08/10 00:40:16;;;;;;;6.60;3.77;;;12.50;99.90;;;;;;5053712;28;20498;-56
2023/08/10 00:42:42;;;;;;;6.17;3.30;;;12.50;99.90;;;;;;5051753;28;20205;-55
2023/08/10 00:45:12;;;;;;;6.50;3.47;;;12.50;99.90;;;;;;5055030;28;20210;-56
2023/08/10 00:47:39;;;;;;;3.80;3.40;;;12.50;99.90;;;;;;5054936;28;20267;-55
2023/08/10 00:50:05;;;;;;;6.93;3.40;;;12.40;99.90;;;;;;5053003;28;20539;-56
2023/08/10 00:52:31;;;;;;;4.03;2.90;;;12.40;99.90;;;;;;5058164;28;20940;-56
2023/08/10 00:54:57;;;;;;;7.57;3.53;;;12.40;99.90;;;;;;5058857;28;20457;-55
2023/08/10 00:57:23;;;;;;;6.40;3.30;;;12.30;99.90;;;;;;5059700;28;20523;-56
2023/08/10 00:59:49;;;;;;;6.87;3.37;;;12.30;99.90;;;;;;5062509;28;20187;-54
2023/08/10 01:02:15;;;;;;;6.57;3.70;;;12.30;99.90;;;;;;5062837;28;20201;-56
2023/08/10 01:04:42;;;;;;;8.00;3.53;;;12.30;99.90;;;;;;5060448;28;20448;-55
2023/08/10 01:07:13;;;;;;;5.40;3.80;;;12.30;99.90;;;;;;5060398;28;20468;-56
2023/08/10 01:09:39;;;;;;;4.90;3.57;;;12.30;99.90;;;;;;5061963;28;20487;-56
2023/08/10 01:12:18;;;;;;;4.90;3.27;;;12.30;99.90;;;;;;5063153;28;20456;-55
2023/08/10 01:14:59;;;;;;;8.07;3.50;;;12.30;99.90;;;;;;5064985;28;20202;-55
2023/08/10 01:17:28;;;;;;;8.07;3.53;;;12.30;99.90;;;;;;5064961;28;20437;-56
2023/08/10 01:19:56;;;;;;;5.27;3.40;;;12.30;99.90;;;;;;5062935;28;20529;-55
2023/08/10 01:22:25;;;;;;;3.20;2.90;;;12.30;99.90;;;;;;5061144;28;21008;-54
2023/08/10 01:24:58;;;;;;;4.30;3.20;;;12.30;99.90;;;;;;5062811;28;20451;-54
2023/08/10 01:27:24;;;;;;;5.00;3.30;;;12.30;99.90;;;;;;5065496;28;20417;-55
2023/08/10 01:29:50;;;;;;;7.20;3.50;;;12.30;99.90;;;;;;5054816;28;20464;-56
2023/08/10 01:32:16;;;;;;;12.03;4.17;;;12.30;99.90;;;;;;5059590;28;20441;-56
2023/08/10 01:34:42;;;;;;;6.37;2.90;;;12.20;99.90;;;;;;5061899;28;20282;-55
2023/08/10 01:37:07;;;;;;;4.20;3.13;;;12.20;99.90;;;;;;5063586;28;20444;-54
2023/08/10 01:39:33;;;;;;;5.17;3.10;;;12.20;99.90;;;;;;5065354;28;20519;-55
2023/08/10 01:41:59;;;;;;;6.93;3.97;;;12.20;99.90;;;;;;5062510;28;20190;-55
2023/08/10 01:44:24;;;;;;;6.03;3.40;;;12.20;99.90;;;;;;5060033;28;22224;-55
2023/08/10 01:46:53;;;;;;;4.43;3.50;;;12.20;99.90;;;;;;5054048;28;20178;-55
2023/08/10 01:49:23;;;;;;;3.73;3.43;;;12.10;99.90;;;;;;5066889;28;20824;-54
2023/08/10 01:51:50;;;;;;;4.17;3.27;;;12.10;99.90;;;;;;5059241;28;22346;-55
2023/08/10 01:54:18;;;;;;;3.60;3.30;;;12.10;99.90;;;;;;5053621;28;21091;-54
2023/08/10 01:56:44;;;;;;;10.13;3.20;;;12.10;99.90;;;;;;5058478;28;20420;-55
2023/08/10 01:59:10;;;;;;;4.80;3.20;;;12.10;99.90;;;;;;5062845;28;20463;-55
2023/08/10 02:01:36;;;;;;;6.00;3.53;;;12.10;99.90;;;;;;5056099;28;20683;-56
2023/08/10 02:04:01;;;;;;;8.77;3.90;;;12.10;99.90;;;;;;5056143;28;20456;-57
2023/08/10 02:06:27;;;;;;;4.90;3.50;;;12.00;99.90;;;;;;5056897;28;20259;-55
2023/08/10 02:08:53;;;;;;;6.47;3.60;;;12.00;99.90;;;;;;5061088;28;20748;-55
2023/08/10 02:11:18;;;;;;;5.97;4.00;;;12.00;99.90;;;;;;5057156;28;20186;-58
2023/08/10 02:13:44;;;;;;;5.43;4.20;;;12.00;99.90;;;;;;5055199;28;20244;-56
2023/08/10 02:16:10;;;;;;;4.53;3.90;;;12.00;99.90;;;;;;5058813;28;20175;-55
2023/08/10 02:18:37;;;;;;;4.03;3.60;;;12.00;99.90;;;;;;5053252;28;20182;-56
2023/08/10 02:21:02;;;;;;;5.30;3.93;;;12.00;99.90;;;;;;5060980;28;20448;-55
2023/08/10 02:23:29;;;;;;;7.93;3.60;;;12.00;99.90;;;;;;5061174;28;20958;-54
2023/08/10 02:25:54;;;;;;;7.87;3.40;;;12.00;99.90;;;;;;5061874;28;20778;-57
2023/08/10 02:28:20;;;;;;;4.37;3.70;;;11.90;99.90;;;;;;5058763;28;20570;-54
2023/08/10 02:30:46;;;;;;;4.37;3.20;;;11.90;99.90;;;;;;5061085;28;20666;-54
2023/08/10 02:33:11;;;;;;;9.20;3.63;;;11.90;99.90;;;;;;5057330;28;20240;-55
2023/08/10 02:35:37;;;;;;;5.10;3.70;;;11.90;99.90;;;;;;5060740;28;20202;-55
2023/08/10 02:38:02;;;;;;;8.37;3.97;;;11.90;99.90;;;;;;5054892;28;20277;-55
2023/08/10 02:40:28;;;;;;;7.70;3.97;;;11.80;99.90;;;;;;5051632;28;20205;-56
2023/08/10 02:42:54;;;;;;;6.50;3.60;;;11.80;99.90;;;;;;5050914;28;20190;-57
2023/08/10 02:45:19;;;;;;;4.73;3.50;;;11.80;99.90;;;;;;5053991;28;20198;-55
2023/08/10 02:47:45;;;;;;;5.60;3.47;;;11.80;99.90;;;;;;5055493;28;20574;-55
2023/08/10 02:50:11;;;;;;;3.60;3.27;;;11.80;99.90;;;;;;5056801;28;20214;-54
2023/08/10 02:52:37;;;;;;;5.47;3.13;;;11.80;99.90;;;;;;5060415;28;22445;-55
2023/08/10 02:55:03;;;;;;;3.10;2.80;;;11.70;99.90;;;;;;5055285;28;20579;-54
2023/08/10 02:57:30;;;;;;;3.73;3.13;;;11.70;99.90;;;;;;5060159;28;20178;-55
2023/08/10 02:59:55;;;;;;;3.80;3.07;;;11.70;99.90;;;;;;5061627;28;20432;-55
2023/08/10 03:02:21;;;;;;;5.63;3.47;;;11.60;99.90;;;;;;5057739;28;20424;-55
2023/08/10 03:04:47;;;;;;;6.97;3.20;;;11.60;99.90;;;;;;5059247;28;20948;-55
2023/08/10 03:07:13;;;;;;;10.90;3.63;;;11.60;99.90;;;;;;5055443;28;20174;-55
2023/08/10 03:09:41;;;;;;;10.00;4.20;;;11.60;99.90;;;;;;5056511;28;20290;-55
2023/08/10 03:12:07;;;;;;;4.67;2.93;;;11.60;99.90;;;;;;5066623;28;21194;-55
2023/08/10 03:14:33;;;;;;;4.90;3.70;;;11.50;99.90;;;;;;5066241;28;20850;-56
2023/08/10 03:16:59;;;;;;;8.13;3.23;;;11.60;99.90;;;;;;5065501;28;20416;-55
2023/08/10 03:19:24;;;;;;;4.70;3.37;;;11.50;99.90;;;;;;5061596;28;20265;-56
2023/08/10 03:21:50;;;;;;;5.60;3.00;;;11.50;99.90;;;;;;5059618;28;20515;-55
2023/08/10 03:24:15;;;;;;;9.57;3.77;;;11.50;99.90;;;;;;5060208;28;20223;-55
2023/08/10 03:26:41;;;;;;;6.50;3.03;;;11.50;99.90;;;;;;5060324;28;20723;-55
2023/08/10 03:29:07;;;;;;;5.10;3.40;;;11.50;99.90;;;;;;5059595;28;20288;-56
2023/08/10 03:31:32;;;;;;;5.30;3.00;;;11.40;99.90;;;;;;5057800;28;20185;-56
2023/08/10 03:33:58;;;;;;;12.03;3.53;;;11.40;99.90;;;;;;5062155;28;21911;-55
2023/08/10 03:36:23;;;;;;;3.83;3.00;;;11.40;99.90;;;;;;5060897;28;20227;-56
2023/08/10 03:38:49;;;;;;;5.40;3.00;;;11.40;99.90;;;;;;5057813;28;20201;-56
2023/08/10 03:41:14;;;;;;;4.20;3.50;;;11.40;99.90;;;;;;5060296;28;20177;-55
2023/08/10 03:43:40;;;;;;;4.70;2.90;;;11.30;99.90;;;;;;5054415;28;20170;-57
2023/08/10 03:46:06;;;;;;;4.97;3.57;;;11.40;99.90;;;;;;5054515;28;20190;-55
2023/08/10 03:48:32;;;;;;;5.20;3.83;;;11.30;99.90;;;;;;5054083;28;20237;-56
2023/08/10 03:50:58;;;;;;;5.03;3.90;;;11.40;99.90;;;;;;5052522;28;20525;-56
2023/08/10 03:53:23;;;;;;;12.00;4.10;;;11.30;99.90;;;;;;5051849;28;20720;-56
2023/08/10 03:55:49;;;;;;;30.87;4.97;;;11.30;99.90;;;;;;5050684;28;20202;-56
2023/08/10 03:58:15;;;;;;;4.93;3.60;;;11.40;99.90;;;;;;5055619;28;20615;-57
2023/08/10 04:00:44;;;;;;;5.20;4.10;;;11.30;99.90;;;;;;5053839;28;20228;-57
2023/08/10 04:03:11;;;;;;;10.80;4.90;;;11.30;99.90;;;;;;5056778;28;20270;-55
2023/08/10 04:05:37;;;;;;;9.33;4.37;;;11.20;99.90;;;;;;5050206;28;20441;-57
2023/08/10 04:08:03;;;;;;;8.27;4.57;;;11.20;99.90;;;;;;5043452;28;20435;-57
2023/08/10 04:10:30;;;;;;;4.07;3.63;;;11.20;99.90;;;;;;5053497;28;20626;-60
2023/08/10 04:12:55;;;;;;;13.30;4.90;;;11.20;99.90;;;;;;5053566;28;20436;-59
2023/08/10 04:15:21;;;;;;;7.07;4.47;;;11.20;99.90;;;;;;5051249;28;20451;-58
2023/08/10 04:17:47;;;;;;;6.83;4.27;;;11.20;99.90;;;;;;5060756;28;20198;-58
2023/08/10 04:20:14;;;;;;;9.50;4.50;;;11.20;99.90;;;;;;5061539;28;21120;-58
2023/08/10 04:22:39;;;;;;;9.13;4.20;;;11.30;99.90;;;;;;5060895;28;20182;-59
2023/08/10 04:25:07;;;;;;;10.80;6.47;;;11.30;99.90;;;;;;5059241;28;20452;-58
2023/08/10 04:27:33;;;;;;;8.80;4.33;;;11.30;99.90;;;;;;5053361;28;20451;-58
2023/08/10 04:29:58;;;;;;;12.53;3.77;;;11.30;99.90;;;;;;5056077;28;20448;-58
2023/08/10 04:32:24;;;;;;;5.33;3.70;;;11.30;99.90;;;;;;5043005;28;20546;-59
2023/08/10 04:34:51;;;;;;;9.83;3.90;;;11.20;99.90;;;;;;5051607;28;20197;-57
2023/08/10 04:37:17;;;;;;;6.47;3.40;;;11.20;99.90;;;;;;5055791;28;20175;-57
2023/08/10 04:39:43;;;;;;;8.37;4.50;;;11.20;99.90;;;;;;5060426;28;20447;-58
2023/08/10 04:42:09;;;;;;;5.60;4.43;;;11.30;99.90;;;;;;5062419;28;20186;-59
2023/08/10 04:44:35;;;;;;;7.17;4.00;;;11.30;99.90;;;;;;5061110;28;20448;-59
2023/08/10 04:47:00;;;;;;;7.50;4.00;;;11.30;99.90;;;;;;5056372;28;20968;-59
2023/08/10 04:49:28;;;;;;;7.20;4.47;;;11.30;99.90;;;;;;5058387;28;20194;-59
2023/08/10 04:51:54;;;;;;;8.80;5.20;;;11.30;99.90;;;;;;5050962;28;20221;-59
2023/08/10 04:54:20;;;;;;;8.30;5.00;;;11.30;99.90;;;;;;5051305;28;20465;-58
2023/08/10 04:56:46;;;;;;;9.20;5.23;;;11.30;99.90;;;;;;5053669;28;20439;-58
2023/08/10 04:59:12;;;;;;;11.30;5.07;;;11.40;99.90;;;;;;5061121;28;20436;-57
2023/08/10 05:01:38;;;;;;;7.43;5.40;;;11.40;99.90;;;;;;5066097;28;20220;-58
2023/08/10 05:04:05;;;;;;;10.60;5.40;;;11.40;99.90;;;;;;5061840;28;20186;-58
2023/08/10 05:06:31;;;;;;;8.67;4.70;;;11.50;99.90;;;;;;5064061;28;20460;-58
2023/08/10 05:08:57;;;;;;;13.13;4.60;;;11.50;99.90;;;;;;5065115;28;20568;-59
2023/08/10 05:11:23;;;;;;;5.73;4.47;;;11.60;99.90;;;;;;5062176;28;20251;-58
2023/08/10 05:13:49;;;;;;;24.87;6.50;;;11.60;99.90;;;;;;5057844;28;20217;-58
2023/08/10 05:16:15;;;;;;;6.93;4.97;;;11.70;99.90;;;;;;5059191;28;20434;-58
2023/08/10 05:18:41;;;;;;;6.80;5.00;;;11.70;99.90;;;;;;5061374;28;20420;-58
2023/08/10 05:21:06;;;;;;;15.40;5.17;;;11.70;99.90;;;;;;5054531;28;21003;-58
2023/08/10 05:23:32;;;;;;;7.60;4.10;;;11.80;99.90;;;;;;5059280;28;20528;-58
2023/08/10 05:25:58;;;;;;;10.23;4.60;;;11.80;99.90;;;;;;5058073;28;20198;-58
2023/08/10 05:28:23;;;;;;;7.93;4.70;;;11.80;99.90;;;;;;5058743;28;20644;-59
2023/08/10 05:30:49;;;;;;;5.97;3.80;;;11.90;99.90;;;;;;5057929;28;20183;-58
2023/08/10 05:33:15;;;;;;;6.97;4.30;;;11.90;99.90;;;;;;5062991;28;20175;-58
2023/08/10 05:35:41;;;;;;;4.23;3.50;;;11.90;99.90;;;;;;5062016;28;20750;-58
2023/08/10 05:38:08;;;;;;;7.33;4.33;;;12.00;99.90;;;;;;5053785;28;20210;-58
2023/08/10 05:40:33;;;;;;;4.90;3.77;;;11.90;99.90;;;;;;5057502;28;20420;-58
2023/08/10 05:42:59;;;;;;;9.07;4.13;;;12.00;99.90;;;;;;5055993;28;20430;-58
2023/08/10 05:45:25;;;;;;;8.70;3.60;;;12.00;99.90;;;;;;5060274;28;20527;-57
2023/08/10 05:47:51;;;;;;;4.37;3.80;;;12.00;99.90;;;;;;5055963;28;20193;-57
2023/08/10 05:50:18;;;;;;;4.83;3.70;;;12.00;99.90;;;;;;5056555;28;20456;-58
2023/08/10 05:52:44;;;;;;;6.63;4.97;;;12.00;99.90;;;;;;5056896;28;20471;-57
2023/08/10 05:55:11;;;;;;;7.63;4.20;;;12.10;99.90;;;;;;5058752;28;20467;-57
2023/08/10 05:57:38;;;;;;;6.70;3.87;;;12.10;99.90;;;;;;5056930;28;20421;-57
2023/08/10 06:00:04;;;;;;;3.50;3.20;;;12.10;99.90;;;;;;5059470;28;20420;-56
2023/08/10 06:02:30;;;;;;;3.73;3.30;;;12.20;99.90;;;;;;5058382;28;20985;-58
2023/08/10 06:04:55;;;;;;;4.80;3.77;;;12.30;99.90;;;;;;5061641;28;20483;-57
2023/08/10 06:07:21;;;;;;;6.47;3.03;;;12.30;99.90;;;;;;5062698;28;20179;-59
2023/08/10 06:09:47;;;;;;;3.13;2.83;;;12.30;99.90;;;;;;5059366;28;20193;-57
2023/08/10 06:12:12;;;;;;;2.97;2.77;;;12.30;99.90;;;;;;5056394;28;20444;-58
2023/08/10 06:14:38;;;;;;;3.37;3.07;;;12.40;99.90;;;;;;5064193;28;20194;-57
2023/08/10 06:17:07;;;;;;;4.63;2.80;;;12.50;99.90;;;;;;5053686;28;20237;-57
2023/08/10 06:19:33;;;;;;;5.70;3.23;;;12.60;99.90;;;;;;5057369;28;20273;-58
2023/08/10 06:21:58;;;;;;;4.53;3.73;;;12.60;99.90;;;;;;5057580;28;20512;-58
2023/08/10 06:24:24;;;;;;;4.23;3.67;;;12.70;99.90;;;;;;5065682;28;20440;-52
2023/08/10 06:26:50;;;;;;;4.47;3.80;;;12.80;99.90;;;;;;5060078;28;20217;-58
2023/08/10 06:29:16;;;;;;;4.93;4.00;;;12.90;99.90;;;;;;5059673;28;20209;-57
2023/08/10 06:31:41;;;;;;;4.47;3.80;;;13.00;99.90;;;;;;5062645;28;20430;-57
2023/08/10 06:34:07;;;;;;;4.60;3.97;;;13.10;99.90;;;;;;5063322;28;20218;-57
2023/08/10 06:36:35;;;;;;;4.77;3.83;;;13.10;99.90;;;;;;5059242;28;20175;-59
2023/08/10 06:39:02;;;;;;;4.77;3.30;;;13.20;99.90;;;;;;5056917;28;20173;-57
2023/08/10 06:41:28;;;;;;;6.20;3.30;;;13.30;99.90;;;;;;5054781;28;20464;-58
2023/08/10 06:43:54;;;;;;;7.70;3.90;;;13.40;99.90;;;;;;5063431;28;20471;-58
2023/08/10 06:46:20;;;;;;;8.97;3.70;;;13.50;99.90;;;;;;5062036;28;20167;-58
2023/08/10 06:48:47;;;;;;;8.97;4.40;;;13.60;99.90;;;;;;5062065;28;20467;-59
2023/08/10 06:51:12;;;;;;;12.33;5.13;;;13.70;99.90;;;;;;5061488;28;20174;-57
2023/08/10 06:53:38;;;;;;;12.30;4.87;;;13.80;99.90;;;;;;5059270;28;20427;-56
2023/08/10 06:56:05;;;;;;;18.57;4.73;;;13.90;99.90;;;;;;5057548;28;20198;-58
2023/08/10 06:58:32;;;;;;;9.10;4.63;;;14.00;99.90;;;;;;5059305;28;20170;-57
2023/08/10 07:00:58;;;;;;;8.03;4.10;;;14.10;99.90;;;;;;5057780;28;20416;-58
2023/08/10 07:03:24;;;;;;;9.53;3.90;;;14.20;99.90;;;;;;5064612;28;21012;-58
2023/08/10 07:05:49;;;;;;;10.70;5.00;;;14.30;99.90;;;;;;5064545;28;20190;-57
2023/08/10 07:08:15;;;;;;;9.33;4.73;;;14.40;99.90;;;;;;5064030;28;20175;-58
2023/08/10 07:10:41;;;;;;;10.97;4.20;;;14.50;99.90;;;;;;5062433;28;20233;-58
2023/08/10 07:13:06;;;;;;;11.10;4.10;;;14.50;99.90;;;;;;5059924;28;20171;-59
2023/08/10 07:15:32;;;;;;;15.73;4.60;;;14.60;99.90;;;;;;5062197;28;20195;-59
2023/08/10 07:17:58;;;;;;;13.37;5.20;;;14.70;99.90;;;;;;5064683;28;20565;-58
2023/08/10 07:20:24;;;;;;;16.27;5.20;;;14.80;99.90;;;;;;5064085;28;20421;-57
2023/08/10 07:22:50;;;;;;;10.63;6.07;;;15.00;99.90;;;;;;5057291;28;20501;-57
2023/08/10 07:25:17;;;;;;;27.40;7.40;;;15.00;99.90;;;;;;5059322;28;20209;-57
2023/08/10 07:27:44;;;;;;;33.33;7.47;;;15.20;99.90;;;;;;5062006;28;20174;-59
2023/08/10 07:30:10;;;;;;;25.90;6.37;;;15.30;99.90;;;;;;5064722;28;20474;-57
2023/08/10 07:32:36;;;;;;;18.77;5.90;;;15.40;99.90;;;;;;5058550;28;21071;-57
2023/08/10 07:35:03;;;;;;;17.43;6.70;;;15.60;99.90;;;;;;5058227;28;21013;-58
2023/08/10 07:37:29;;;;;;;30.43;8.50;;;15.80;99.90;;;;;;5066166;28;20606;-56
2023/08/10 07:39:55;;;;;;;33.27;8.10;;;15.90;99.90;;;;;;5060014;28;20504;-57
2023/08/10 07:42:20;;;;;;;46.80;8.30;;;16.10;99.90;;;;;;5056881;28;20524;-57
2023/08/10 07:44:46;;;;;;;33.80;8.53;;;16.20;99.90;;;;;;5063713;28;20194;-58
2023/08/10 07:47:12;;;;;;;23.33;8.00;;;16.30;99.90;;;;;;5061458;28;20175;-59
2023/08/10 07:49:41;;;;;;;21.23;6.93;;;16.50;99.90;;;;;;5063410;28;20195;-58
2023/08/10 07:52:06;;;;;;;26.20;6.40;;;16.70;99.90;;;;;;5052906;28;20434;-57
2023/08/10 07:54:32;;;;;;;17.90;5.70;;;16.80;99.90;;;;;;5061438;28;21168;-58
2023/08/10 07:56:58;;;;;;;11.77;4.57;;;17.00;99.90;;;;;;5057657;28;20254;-58
2023/08/10 07:59:23;;;;;;;9.20;4.30;;;17.10;99.90;;;;;;5060197;28;20174;-58
2023/08/10 08:01:49;;;;;;;21.13;5.00;;;17.30;99.90;;;;;;5058141;28;20174;-59
2023/08/10 08:04:14;;;;;;;15.03;5.43;;;17.40;99.90;;;;;;5064532;28;20198;-59
2023/08/10 08:06:40;;;;;;;11.00;4.87;;;17.50;99.90;;;;;;5058238;28;20175;-58
2023/08/10 08:09:07;;;;;;;9.30;4.47;;;17.60;99.90;;;;;;5058047;28;20269;-60
2023/08/10 08:11:34;;;;;;;13.97;4.07;;;17.70;99.90;;;;;;5061420;28;20179;-54
2023/08/10 08:14:00;;;;;;;4.17;3.27;;;17.80;99.90;;;;;;5060797;28;20489;-55
2023/08/10 08:16:26;;;;;;;14.77;4.37;;;17.90;99.90;;;;;;5063093;28;20470;-59
2023/08/10 08:18:58;;;;;;;5.97;3.40;;;18.00;99.90;;;;;;5064544;28;20783;-59
2023/08/10 08:21:25;;;;;;;12.17;3.63;;;18.20;99.90;;;;;;5060228;28;20182;-59
2023/08/10 08:23:53;;;;;;;12.97;3.97;;;18.30;99.90;;;;;;5062005;28;20532;-58
2023/08/10 08:26:19;;;;;;;19.07;4.10;;;18.40;99.90;;;;;;5064851;28;20431;-60
2023/08/10 08:28:46;;;;;;;20.73;4.10;;;18.60;99.90;;;;;;5061483;28;20543;-59
2023/08/10 08:31:12;;;;;;;18.13;4.23;;;18.70;99.90;;;;;;5060933;28;20830;-59
2023/08/10 08:33:39;;;;;;;17.20;4.17;;;18.80;99.90;;;;;;5061488;28;20433;-59
2023/08/10 08:36:05;;;;;;;23.80;4.33;;;19.00;99.90;;;;;;5054830;28;20452;-60
2023/08/10 08:38:32;;;;;;;5.40;2.87;;;19.00;99.90;;;;;;5063050;28;20425;-60
2023/08/10 08:41:01;;;;;;;6.40;3.23;;;19.10;99.90;;;;;;5062626;28;20838;-60
2023/08/10 08:43:28;;;;;;;6.33;2.87;;;19.20;99.90;;;;;;5060483;28;20435;-60
2023/08/10 08:45:56;;;;;;;7.50;3.30;;;19.30;99.90;;;;;;5061204;28;21044;-59
2023/08/10 08:48:22;;;;;;;8.83;3.00;;;19.30;99.90;;;;;;5058406;28;20428;-57
2023/08/10 08:50:48;;;;;;;6.03;3.30;;;19.40;99.90;;;;;;5057848;28;20484;-59
2023/08/10 08:53:14;;;;;;;5.13;3.17;;;19.40;99.90;;;;;;5062697;28;20671;-59
2023/08/10 08:55:40;;;;;;;7.00;3.10;;;19.50;99.90;;;;;;5064278;28;20244;-59
2023/08/10 08:58:07;;;;;;;14.03;4.30;;;19.60;98.70;;;;;;5054761;28;20427;-58
2023/08/10 09:00:33;;;;;;;7.93;3.97;;;19.80;98.00;;;;;;5060901;28;20730;-59
2023/08/10 09:02:59;;;;;;;3.50;2.67;;;19.90;97.50;;;;;;5060642;28;20448;-58
2023/08/10 09:05:26;;;;;;;3.80;3.10;;;20.10;93.60;;;;;;5058864;28;20213;-59
2023/08/10 09:07:51;;;;;;;3.80;2.70;;;20.20;85.50;;;;;;5066781;28;20448;-58
2023/08/10 09:10:19;;;;;;;3.00;2.70;;;20.30;80.50;;;;;;5067421;28;21113;-58
2023/08/10 09:12:47;;;;;;;2.97;2.67;;;20.30;83.90;;;;;;5060759;28;20179;-60
2023/08/10 09:15:15;;;;;;;3.47;3.10;;;20.40;86.30;;;;;;5061224;28;20448;-58
2023/08/10 09:17:48;;;;;;;3.20;2.60;;;20.40;81.80;;;;;;5063459;28;20933;-58
2023/08/10 09:20:27;;;;;;;5.60;3.10;;;20.50;86.00;;;;;;5067206;28;20464;-59
2023/08/10 09:22:55;;;;;;;3.20;2.63;;;20.50;85.30;;;;;;5065351;28;20432;-58
2023/08/10 09:25:22;;;;;;;4.23;2.67;;;20.60;85.20;;;;;;5065377;28;20523;-57
2023/08/10 09:27:48;;;;;;;4.70;2.90;;;20.80;79.30;;;;;;5063032;28;20552;-59
2023/08/10 09:30:15;;;;;;;2.90;2.60;;;20.90;77.80;;;;;;5057401;28;20984;-59
2023/08/10 09:32:41;;;;;;;2.60;2.40;;;21.00;79.70;;;;;;5067982;28;20885;-58
2023/08/10 09:35:18;;;;;;;3.20;2.90;;;21.10;75.80;;;;;;5059547;28;20453;-58
2023/08/10 09:37:46;;;;;;;3.60;2.80;;;21.20;75.10;;;;;;5066144;28;20423;-58
2023/08/10 09:40:15;;;;;;;5.30;2.47;;;21.30;75.10;;;;;;5067768;28;21062;-59
2023/08/10 09:42:40;;;;;;;5.00;3.00;;;21.40;73.10;;;;;;5063383;28;20429;-58
2023/08/10 09:45:08;;;;;;;9.43;2.60;;;21.50;71.10;;;;;;5062021;28;21856;-59
2023/08/10 09:47:39;;;;;;;4.60;3.00;;;21.60;65.40;;;;;;5060942;28;20189;-59
2023/08/10 09:50:08;;;;;;;6.93;2.87;;;21.50;65.30;;;;;;5065133;28;20457;-57
2023/08/10 09:52:36;;;;;;;2.60;2.40;;;21.50;68.70;;;;;;5063572;28;20424;-57
2023/08/10 09:55:03;;;;;;;5.60;2.63;;;21.60;69.30;;;;;;5065045;28;20783;-58
2023/08/10 09:57:29;;;;;;;8.60;2.70;;;21.70;68.10;;;;;;5060892;28;20792;-59
2023/08/10 09:59:55;;;;;;;6.23;2.80;;;21.80;65.70;;;;;;5063740;28;20441;-58
2023/08/10 10:02:21;;;;;;;4.87;2.47;;;22.00;63.00;;;;;;5063603;28;20181;-59
2023/08/10 10:04:47;;;;;;;4.03;2.97;;;22.10;61.70;;;;;;5059998;28;20448;-59
2023/08/10 10:07:16;;;;;;;4.33;2.50;;;22.20;62.40;;;;;;5069842;28;20784;-58
2023/08/10 10:09:43;;;;;;;3.03;2.70;;;22.30;64.60;;;;;;5067104;28;20452;-57
2023/08/10 10:12:12;;;;;;;3.23;2.90;;;22.40;64.00;;;;;;5061137;28;20820;-58
2023/08/10 10:14:45;;;;;;;3.40;3.10;;;22.50;62.60;;;;;;5063680;28;20444;-59
2023/08/10 10:17:12;;;;;;;3.00;2.67;;;22.60;66.30;;;;;;5066474;28;20519;-59
2023/08/10 10:19:41;;;;;;;3.03;2.73;;;22.70;66.70;;;;;;5062072;28;20494;-57
2023/08/10 10:22:07;;;;;;;3.70;3.00;;;22.70;64.50;;;;;;5060889;28;20443;-58
2023/08/10 10:24:34;;;;;;;3.60;2.60;;;22.80;61.70;;;;;;5062013;28;20453;-58
2023/08/10 10:27:13;;;;;;;3.63;2.40;;;22.80;63.90;;;;;;5062925;28;20494;-59
2023/08/10 10:29:46;;;;;;;11.10;2.60;;;22.90;64.80;;;;;;5063431;28;21011;-59
2023/08/10 10:32:11;;;;;;;4.50;2.63;;;23.00;60.70;;;;;;5068091;28;20444;-58
2023/08/10 10:34:38;;;;;;;4.87;2.83;;;23.10;60.30;;;;;;5067176;28;20452;-58
2023/08/10 10:37:16;;;;;;;3.67;2.53;;;23.20;57.30;;;;;;5062960;28;20662;-57
2023/08/10 10:39:50;;;;;;;8.17;2.77;;;23.30;55.90;;;;;;5060992;28;20913;-58
2023/08/10 10:42:17;;;;;;;4.43;2.53;;;23.40;56.00;;;;;;5055889;28;20432;-56
2023/08/10 10:45:03;;;;;;;2.90;2.57;;;23.50;53.70;;;;;;5055023;28;20540;-57
2023/08/10 10:47:37;;;;;;;3.50;2.47;;;23.60;53.70;;;;;;5059579;28;20467;-58
2023/08/10 10:50:18;;;;;;;4.10;2.40;;;23.70;53.40;;;;;;5063455;28;20494;-57
2023/08/10 10:52:55;;;;;;;7.10;2.73;;;23.80;54.30;;;;;;5056254;28;20956;-59
2023/08/10 10:55:44;;;;;;;5.00;3.10;;;23.90;53.50;;;;;;5051232;28;20445;-59
2023/08/10 10:58:12;;;;;;;5.57;2.83;;;24.00;52.60;;;;;;5058680;28;20457;-58
2023/08/10 11:00:38;;;;;;;4.00;2.97;;;24.10;52.50;;;;;;5062446;28;20434;-59
2023/08/10 11:03:08;;;;;;;3.27;2.43;;;24.20;52.50;;;;;;5057560;28;20793;-58
2023/08/10 11:05:35;;;;;;;8.63;2.93;;;24.20;52.40;;;;;;5057243;28;20437;-59
2023/08/10 11:08:03;;;;;;;2.53;2.33;;;24.10;52.70;;;;;;5061743;28;20520;-57
2023/08/10 11:10:37;;;;;;;3.67;2.83;;;24.20;52.40;;;;;;5061908;28;20445;-57
2023/08/10 11:13:07;;;;;;;4.27;2.50;;;24.30;52.60;;;;;;5062829;28;20432;-58
2023/08/10 11:15:33;;;;;;;8.03;3.20;;;24.40;52.10;;;;;;5062655;28;20949;-58
2023/08/10 11:17:59;;;;;;;2.80;2.60;;;24.50;50.70;;;;;;5064837;28;20429;-59
2023/08/10 11:20:25;;;;;;;5.10;2.83;;;24.60;51.30;;;;;;5062604;28;20806;-58
2023/08/10 11:22:52;;;;;;;2.90;2.60;;;24.80;50.80;;;;;;5058729;28;20944;-57
2023/08/10 11:25:20;;;;;;;3.03;2.70;;;24.90;50.60;;;;;;5058483;28;20198;-59
2023/08/10 11:27:51;;;;;;;3.50;2.80;;;25.00;49.80;;;;;;5059480;28;20425;-59
2023/08/10 11:30:20;;;;;;;3.43;3.13;;;25.00;47.70;;;;;;5061282;28;20455;-59
2023/08/10 11:32:48;;;;;;;4.50;2.13;;;25.00;48.90;;;;;;5063781;28;20493;-59
2023/08/10 11:35:17;;;;;;;3.20;2.63;;;25.10;50.40;;;;;;5062380;28;20455;-58
2023/08/10 11:37:44;;;;;;;2.30;2.10;;;25.30;50.70;;;;;;5063748;28;21003;-58
2023/08/10 11:40:14;;;;;;;2.60;2.40;;;25.30;49.20;;;;;;5061920;28;20445;-60
2023/08/10 11:42:41;;;;;;;4.67;2.73;;;25.40;49.90;;;;;;5058353;28;20428;-60
2023/08/10 11:45:20;;;;;;;2.60;2.40;;;25.50;50.30;;;;;;5059929;28;20458;-58
2023/08/10 11:47:53;;;;;;;3.47;3.17;;;25.60;50.40;;;;;;5068166;28;20419;-55
2023/08/10 11:50:21;;;;;;;5.50;2.90;;;25.70;50.00;;;;;;5059908;28;21318;-59
2023/08/10 11:52:49;;;;;;;3.33;2.70;;;25.80;49.30;;;;;;5060877;28;21010;-54
2023/08/10 11:55:16;;;;;;;2.93;2.63;;;25.70;48.70;;;;;;5060703;28;20974;-57
2023/08/10 11:57:53;;;;;;;2.70;2.50;;;25.70;48.30;;;;;;5058904;28;20522;-58
2023/08/10 12:00:29;;;;;;;2.93;2.60;;;25.80;50.00;;;;;;5062911;28;20416;-59
2023/08/10 12:02:58;;;;;;;3.60;2.60;;;25.70;46.40;;;;;;5056142;28;20455;-58
2023/08/10 12:05:42;;;;;;;4.00;2.60;;;25.70;48.10;;;;;;5063176;28;20952;-60
2023/08/10 12:08:17;;;;;;;3.07;2.40;;;25.80;48.50;;;;;;5063166;28;22532;-59
2023/08/10 12:10:47;;;;;;;2.80;2.60;;;25.90;48.60;;;;;;5059041;28;20849;-60
2023/08/10 12:13:14;;;;;;;2.70;2.50;;;26.00;49.10;;;;;;5066568;28;20420;-59
2023/08/10 12:15:46;;;;;;;3.00;2.70;;;26.20;49.80;;;;;;5065837;28;20807;-61
2023/08/10 12:18:12;;;;;;;2.73;2.30;;;26.40;48.90;;;;;;5060905;28;20477;-58
2023/08/10 12:20:37;;;;;;;2.70;2.20;;;26.60;49.00;;;;;;5063000;28;20519;-57
2023/08/10 12:23:03;;;;;;;2.60;2.20;;;26.80;48.50;;;;;;5061535;28;20177;-57
2023/08/10 12:25:29;;;;;;;3.37;2.40;;;26.90;46.40;;;;;;5062300;28;20194;-57
2023/08/10 12:27:54;;;;;;;2.67;2.20;;;27.00;46.70;;;;;;5056132;28;20186;-59
2023/08/10 12:30:20;;;;;;;4.70;2.40;;;27.00;46.70;;;;;;5058762;28;20590;-59
2023/08/10 12:32:46;;;;;;;4.93;2.53;;;27.10;45.60;;;;;;5056560;28;20339;-59
2023/08/10 12:35:12;;;;;;;2.80;2.50;;;27.10;45.30;;;;;;5062603;28;20235;-59
2023/08/10 12:37:38;;;;;;;3.90;2.30;;;27.10;44.60;;;;;;5057516;28;22233;-60
2023/08/10 12:40:05;;;;;;;3.03;2.47;;;27.20;46.00;;;;;;5058893;28;20184;-60
2023/08/10 12:42:30;;;;;;;3.97;1.97;;;27.30;47.20;;;;;;5064209;28;20179;-60
2023/08/10 12:44:56;;;;;;;3.10;2.60;;;27.40;46.10;;;;;;5058905;28;20204;-59